createdAt,value
2019-04-04T00:01:16.990Z,8.93
2019-04-04T00:03:45.971Z,9.23
2019-04-04T00:06:14.193Z,9.30
2019-04-04T00:08:42.524Z,9.97
2019-04-04T00:11:10.744Z,10.47
2019-04-04T00:13:41.690Z,12.27
2019-04-04T00:16:08.864Z,12.37
2019-04-04T00:18:37.084Z,12.80
2019-04-04T00:21:05.343Z,17.33
2019-04-04T00:23:33.569Z,15.63
2019-04-04T00:26:01.832Z,15.37
2019-04-04T00:28:30.124Z,13.80
2019-04-04T00:30:58.380Z,12.47
2019-04-04T00:33:26.604Z,12.20
2019-04-04T00:35:54.938Z,13.03
2019-04-04T00:38:23.156Z,11.93
2019-04-04T00:40:51.475Z,13.10
2019-04-04T00:43:21.511Z,12.77
2019-04-04T00:45:49.766Z,15.63
2019-04-04T00:48:17.992Z,13.37
2019-04-04T00:50:46.317Z,16.10
2019-04-04T00:53:14.544Z,13.47
2019-04-04T00:55:43.261Z,13.37
2019-04-04T00:58:11.447Z,14.30
2019-04-04T01:00:39.696Z,14.33
2019-04-04T01:03:07.992Z,14.03
2019-04-04T01:05:36.320Z,13.70
2019-04-04T01:08:04.963Z,17.93
2019-04-04T01:10:34.516Z,13.97
2019-04-04T01:13:02.744Z,15.40
2019-04-04T01:15:31.787Z,15.60
2019-04-04T01:18:04.014Z,15.50
2019-04-04T01:20:32.916Z,13.37
2019-04-04T01:23:01.148Z,13.60
2019-04-04T01:25:31.776Z,13.60
2019-04-04T01:27:59.403Z,14.53
2019-04-04T01:30:27.630Z,14.40
2019-04-04T01:32:56.020Z,14.40
2019-04-04T01:35:24.313Z,14.17
2019-04-04T01:37:52.565Z,14.57
2019-04-04T01:40:20.852Z,15.03
2019-04-04T01:42:49.104Z,15.30
2019-04-04T01:45:17.340Z,14.27
2019-04-04T01:47:47.675Z,16.63
2019-04-04T01:50:15.577Z,14.27
2019-04-04T01:52:43.873Z,15.40
2019-04-04T01:55:16.099Z,14.83
2019-04-04T01:57:44.312Z,15.97
2019-04-04T02:00:15.143Z,15.93
2019-04-04T02:02:43.155Z,16.67
2019-04-04T02:05:11.444Z,14.20
2019-04-04T02:07:39.709Z,15.43
2019-04-04T02:10:08.805Z,15.33
2019-04-04T02:12:38.807Z,15.83
2019-04-04T02:15:09.892Z,13.80
2019-04-04T02:17:38.151Z,16.33
2019-04-04T02:20:14.901Z,17.30
2019-04-04T02:22:43.635Z,16.23
2019-04-04T02:25:12.051Z,16.87
2019-04-04T02:27:40.277Z,15.90
2019-04-04T02:30:14.967Z,16.20
2019-04-04T02:32:39.238Z,15.90
2019-04-04T02:35:10.301Z,14.53
2019-04-04T02:37:37.428Z,14.80
2019-04-04T02:40:08.693Z,15.37
2019-04-04T02:42:36.793Z,14.77
2019-04-04T02:45:06.435Z,14.47
2019-04-04T02:47:34.878Z,13.33
2019-04-04T02:50:03.212Z,16.17
2019-04-04T02:52:31.484Z,14.83
2019-04-04T02:54:59.743Z,15.30
2019-04-04T02:57:27.975Z,14.63
2019-04-04T02:59:56.236Z,14.00
2019-04-04T03:02:24.466Z,14.57
2019-04-04T03:04:53.107Z,13.53
2019-04-04T03:07:21.326Z,14.13
2019-04-04T03:09:49.577Z,14.63
2019-04-04T03:12:17.889Z,14.80
2019-04-04T03:14:46.219Z,13.67
2019-04-04T03:17:15.081Z,13.67
2019-04-04T03:19:44.486Z,13.90
2019-04-04T03:22:13.060Z,14.87
2019-04-04T03:24:44.726Z,14.60
2019-04-04T03:27:25.467Z,15.17
2019-04-04T03:29:50.385Z,16.67
2019-04-04T03:32:18.654Z,15.57
2019-04-04T03:34:50.087Z,17.27
2019-04-04T03:37:16.833Z,16.53
2019-04-04T03:39:45.062Z,16.57
2019-04-04T03:42:13.320Z,16.33
2019-04-04T03:44:41.615Z,17.80
2019-04-04T03:47:10.458Z,16.93
2019-04-04T03:49:39.680Z,18.50
2019-04-04T03:52:11.249Z,16.40
2019-04-04T03:54:37.872Z,17.90
2019-04-04T03:57:06.097Z,15.50
2019-04-04T03:59:34.358Z,16.43
2019-04-04T04:02:02.701Z,15.00
2019-04-04T04:04:30.926Z,16.43
2019-04-04T04:06:59.208Z,18.43
2019-04-04T04:09:27.461Z,17.53
2019-04-04T04:11:55.757Z,19.37
2019-04-04T04:14:24.012Z,18.53
2019-04-04T04:16:52.235Z,18.77
2019-04-04T04:19:24.572Z,19.43
2019-04-04T04:21:53.195Z,20.67
2019-04-04T04:24:21.465Z,18.27
2019-04-04T04:26:49.708Z,18.93
2019-04-04T04:29:17.969Z,20.30
2019-04-04T04:31:49.273Z,19.40
2019-04-04T04:34:16.099Z,20.13
2019-04-04T04:36:47.678Z,22.67
2019-04-04T04:39:14.313Z,22.60
2019-04-04T04:41:42.542Z,23.37
2019-04-04T04:44:10.790Z,20.83
2019-04-04T04:46:39.052Z,24.93
2019-04-04T04:49:07.361Z,24.80
2019-04-04T04:51:35.632Z,25.07
2019-04-04T04:54:03.917Z,24.33
2019-04-04T04:56:32.180Z,25.60
2019-04-04T04:59:00.477Z,24.30
2019-04-04T05:01:28.733Z,24.17
2019-04-04T05:03:57.262Z,26.53
2019-04-04T05:06:25.611Z,25.27
2019-04-04T05:08:53.850Z,24.90
2019-04-04T05:11:22.104Z,27.00
2019-04-04T05:13:50.337Z,24.77
2019-04-04T05:16:18.596Z,27.40
2019-04-04T05:18:48.133Z,27.90
2019-04-04T05:21:24.790Z,28.07
2019-04-04T05:23:47.032Z,26.47
2019-04-04T05:26:16.084Z,26.63
2019-04-04T05:28:44.386Z,28.83
2019-04-04T05:31:12.642Z,25.40
2019-04-04T05:33:41.688Z,27.77
2019-04-04T05:36:10.147Z,30.13
2019-04-04T05:38:38.375Z,24.90
2019-04-04T05:41:06.680Z,28.73
2019-04-04T05:43:37.274Z,26.57
2019-04-04T05:46:05.191Z,26.87
2019-04-04T05:48:33.467Z,26.13
2019-04-04T05:51:01.749Z,27.47
2019-04-04T05:53:29.993Z,26.03
2019-04-04T05:55:58.345Z,26.13
2019-04-04T05:58:26.581Z,23.13
2019-04-04T06:00:57.568Z,23.90
2019-04-04T06:03:24.789Z,23.17
2019-04-04T06:05:53.089Z,21.93
2019-04-04T06:08:22.025Z,20.60
2019-04-04T06:10:50.863Z,21.90
2019-04-04T06:13:22.160Z,23.33
2019-04-04T06:15:49.289Z,21.90
2019-04-04T06:18:17.629Z,23.70
2019-04-04T06:20:48.351Z,22.03
2019-04-04T06:23:16.121Z,24.43
2019-04-04T06:25:44.413Z,25.23
2019-04-04T06:28:12.762Z,23.30
2019-04-04T06:30:43.420Z,22.60
2019-04-04T06:33:10.947Z,23.90
2019-04-04T06:35:39.958Z,25.77
2019-04-04T06:38:08.581Z,25.40
2019-04-04T06:40:36.913Z,25.00
2019-04-04T06:43:10.361Z,25.53
2019-04-04T06:45:46.079Z,26.03
2019-04-04T06:48:12.577Z,25.27
2019-04-04T06:50:43.038Z,26.53
2019-04-04T06:53:10.892Z,27.60
2019-04-04T06:55:40.268Z,27.67
2019-04-04T06:58:09.631Z,28.77
2019-04-04T07:00:38.101Z,28.80
2019-04-04T07:03:06.324Z,28.97
2019-04-04T07:05:37.910Z,28.43
2019-04-04T07:08:04.666Z,27.93
2019-04-04T07:10:32.933Z,28.97
2019-04-04T07:13:20.147Z,31.27
2019-04-04T07:15:31.152Z,28.53
2019-04-04T07:17:59.365Z,29.30
2019-04-04T07:20:28.604Z,29.90
2019-04-04T07:22:57.113Z,30.13
2019-04-04T07:25:25.372Z,32.90
2019-04-04T07:27:53.603Z,32.80
2019-04-04T07:30:21.864Z,30.23
2019-04-04T07:32:50.089Z,26.93
2019-04-04T07:35:20.896Z,28.07
2019-04-04T07:37:48.376Z,29.47
2019-04-04T07:40:16.672Z,27.20
2019-04-04T07:42:47.098Z,29.73
2019-04-04T07:45:14.904Z,26.53
2019-04-04T07:47:46.669Z,29.30
2019-04-04T07:50:13.178Z,23.13
2019-04-04T07:52:41.432Z,25.00
2019-04-04T07:55:10.933Z,27.03
2019-04-04T07:57:39.455Z,29.27
2019-04-04T08:00:08.477Z,32.27
2019-04-04T08:02:36.803Z,40.00
2019-04-04T08:05:06.500Z,42.40
2019-04-04T08:07:34.767Z,49.07
2019-04-04T08:10:04.152Z,48.17
2019-04-04T08:12:32.478Z,43.77
2019-04-04T08:15:00.776Z,46.27
2019-04-04T08:17:29.033Z,38.37
2019-04-04T08:19:59.877Z,35.27
2019-04-04T08:22:27.237Z,31.43
2019-04-04T08:24:55.472Z,34.97
2019-04-04T08:27:23.728Z,26.63
2019-04-04T08:29:51.952Z,23.77
2019-04-04T08:32:20.208Z,22.33
2019-04-04T08:34:48.497Z,20.93
2019-04-04T08:37:16.760Z,21.63
2019-04-04T08:39:45.057Z,16.30
2019-04-04T08:42:13.381Z,18.37
2019-04-04T08:44:41.782Z,17.07
2019-04-04T08:47:10.111Z,17.30
2019-04-04T08:49:38.413Z,19.47
2019-04-04T08:52:16.127Z,18.00
2019-04-04T08:54:36.531Z,14.73
2019-04-04T08:57:04.860Z,18.20
2019-04-04T08:59:33.165Z,15.23
2019-04-04T09:02:01.457Z,15.67
2019-04-04T09:04:29.761Z,13.80
2019-04-04T09:06:57.977Z,15.70
2019-04-04T09:09:26.243Z,16.43
2019-04-04T09:11:54.486Z,16.87
2019-04-04T09:14:22.789Z,15.63
2019-04-04T09:16:51.118Z,14.73
2019-04-04T09:19:19.421Z,15.07
2019-04-04T09:21:47.672Z,15.17
2019-04-04T09:24:15.964Z,13.90
2019-04-04T09:26:44.184Z,15.87
2019-04-04T09:29:12.442Z,14.47
2019-04-04T09:31:40.697Z,13.27
2019-04-04T09:34:08.913Z,12.63
2019-04-04T09:36:37.169Z,15.27
2019-04-04T09:39:06.332Z,14.27
2019-04-04T09:41:34.674Z,14.03
2019-04-04T09:44:05.797Z,14.37
2019-04-04T09:46:32.967Z,17.97
2019-04-04T09:49:01.294Z,15.60
2019-04-04T09:51:29.613Z,17.10
2019-04-04T09:53:57.937Z,16.00
2019-04-04T09:56:26.212Z,17.13
2019-04-04T09:58:55.049Z,16.10
2019-04-04T10:01:23.458Z,15.93
2019-04-04T10:03:51.782Z,17.50
2019-04-04T10:06:20.017Z,17.77
2019-04-04T10:08:48.316Z,15.53
2019-04-04T10:11:16.560Z,16.33
2019-04-04T10:13:46.200Z,16.67
2019-04-04T10:16:14.533Z,14.00
2019-04-04T10:18:42.781Z,17.20
2019-04-04T10:21:12.445Z,16.87
2019-04-04T10:23:41.137Z,16.63
2019-04-04T10:26:09.457Z,17.50
2019-04-04T10:28:37.765Z,21.30
2019-04-04T10:31:06.112Z,23.13
2019-04-04T10:33:34.419Z,19.77
2019-04-04T10:36:02.686Z,19.10
2019-04-04T10:38:30.913Z,25.13
2019-04-04T10:40:59.188Z,18.57
2019-04-04T10:43:27.417Z,20.47
2019-04-04T10:45:55.681Z,20.70
2019-04-04T10:48:23.901Z,18.27
2019-04-04T10:50:52.201Z,19.63
2019-04-04T10:53:20.467Z,20.37
2019-04-04T10:55:48.772Z,22.57
2019-04-04T10:58:17.032Z,22.40
2019-04-04T11:00:45.329Z,19.70
2019-04-04T11:03:13.601Z,20.77
2019-04-04T11:05:41.938Z,21.30
2019-04-04T11:08:10.260Z,17.77
2019-04-04T11:10:38.600Z,21.23
2019-04-04T11:13:06.939Z,20.60
2019-04-04T11:15:35.245Z,21.20
2019-04-04T11:18:03.565Z,20.40
2019-04-04T11:20:31.873Z,23.07
2019-04-04T11:23:00.119Z,19.03
2019-04-04T11:25:28.352Z,20.83
2019-04-04T11:27:56.681Z,21.57
2019-04-04T11:30:24.983Z,22.47
2019-04-04T11:32:53.234Z,24.27
2019-04-04T11:35:21.551Z,23.73
2019-04-04T11:37:49.880Z,20.97
2019-04-04T11:40:18.112Z,19.63
2019-04-04T11:42:46.371Z,21.63
2019-04-04T11:45:14.675Z,21.07
2019-04-04T11:47:43.006Z,24.30
2019-04-04T11:50:11.396Z,20.50
2019-04-04T11:52:39.657Z,23.83
2019-04-04T11:55:08.057Z,19.13
2019-04-04T11:57:36.467Z,22.90
2019-04-04T12:00:06.299Z,23.50
2019-04-04T12:02:34.552Z,23.03
2019-04-04T12:05:02.863Z,22.50
2019-04-04T12:07:31.125Z,26.30
2019-04-04T12:10:07.367Z,21.70
2019-04-04T12:12:29.291Z,24.50
2019-04-04T12:14:57.560Z,24.77
2019-04-04T12:17:25.787Z,20.27
2019-04-04T12:19:54.036Z,22.93
2019-04-04T12:22:22.257Z,18.67
2019-04-04T12:24:50.508Z,18.07
2019-04-04T12:27:18.747Z,18.70
2019-04-04T12:29:47.002Z,19.97
2019-04-04T12:32:15.292Z,18.53
2019-04-04T12:34:43.545Z,14.93
2019-04-04T12:37:11.765Z,16.43
2019-04-04T12:39:40.037Z,19.43
2019-04-04T12:42:08.331Z,17.73
2019-04-04T12:44:36.561Z,15.70
2019-04-04T12:47:04.893Z,17.03
2019-04-04T12:49:33.112Z,15.93
2019-04-04T12:52:01.474Z,16.30
2019-04-04T12:54:29.698Z,15.50
2019-04-04T12:56:57.953Z,14.53
2019-04-04T12:59:26.252Z,18.00
2019-04-04T13:01:54.575Z,15.13
2019-04-04T13:04:30.947Z,16.70
2019-04-04T13:06:52.720Z,14.57
2019-04-04T13:09:21.027Z,13.57
2019-04-04T13:11:49.268Z,13.90
2019-04-04T13:14:17.573Z,14.50
2019-04-04T13:16:45.840Z,15.23
2019-04-04T13:19:14.056Z,13.93
2019-04-04T13:21:42.396Z,15.07
2019-04-04T13:24:10.710Z,14.17
2019-04-04T13:26:38.957Z,14.07
2019-04-04T13:29:07.201Z,14.50
2019-04-04T13:31:35.457Z,16.33
2019-04-04T13:34:03.758Z,17.33
2019-04-04T13:36:32.090Z,17.53
2019-04-04T13:39:00.321Z,16.30
2019-04-04T13:41:28.589Z,18.10
2019-04-04T13:43:56.818Z,22.37
2019-04-04T13:46:29.195Z,16.47
2019-04-04T13:48:55.090Z,15.87
2019-04-04T13:51:25.455Z,16.27
2019-04-04T13:53:53.232Z,16.53
2019-04-04T13:56:21.564Z,18.23
2019-04-04T13:58:49.819Z,17.53
2019-04-04T14:01:18.133Z,16.57
2019-04-04T14:03:48.263Z,13.43
2019-04-04T14:06:38.465Z,14.53
2019-04-04T14:09:12.012Z,13.97
2019-04-04T14:11:41.237Z,12.63
2019-04-04T14:14:08.604Z,15.93
2019-04-04T14:16:36.861Z,9.87
2019-04-04T14:19:05.165Z,11.13
2019-04-04T14:21:33.481Z,9.13
2019-04-04T14:24:12.351Z,8.93
2019-04-04T14:26:32.101Z,8.80
2019-04-04T14:29:03.701Z,9.77
2019-04-04T14:31:30.481Z,11.37
2019-04-04T14:33:58.714Z,9.03
2019-04-04T14:36:27.037Z,12.07
2019-04-04T14:38:55.261Z,8.70
2019-04-04T14:41:23.583Z,8.73
2019-04-04T14:43:51.881Z,6.40
2019-04-04T14:46:20.136Z,7.03
2019-04-04T14:48:48.434Z,6.37
2019-04-04T14:51:16.653Z,6.90
2019-04-04T14:53:44.901Z,7.30
2019-04-04T14:56:13.206Z,7.40
2019-04-04T14:58:41.456Z,6.30
2019-04-04T15:01:09.680Z,8.90
2019-04-04T15:03:38.007Z,4.63
2019-04-04T15:06:06.308Z,5.87
2019-04-04T15:08:34.723Z,5.80
2019-04-04T15:11:02.963Z,6.17
2019-04-04T15:13:34.642Z,6.97
2019-04-04T15:16:10.580Z,6.10
2019-04-04T15:18:40.597Z,5.63
2019-04-04T15:21:18.921Z,5.83
2019-04-04T15:23:52.331Z,6.27
2019-04-04T15:26:23.901Z,6.47
2019-04-04T15:28:52.630Z,6.17
2019-04-04T15:31:21.758Z,6.70
2019-04-04T15:33:50.976Z,9.23
2019-04-04T15:36:19.262Z,6.37
2019-04-04T15:38:47.512Z,5.13
2019-04-04T15:41:15.806Z,5.63
2019-04-04T15:43:44.064Z,7.33
2019-04-04T15:46:12.350Z,5.60
2019-04-04T15:48:40.596Z,6.67
2019-04-04T15:51:08.816Z,5.00
2019-04-04T15:53:37.069Z,8.43
2019-04-04T15:56:05.328Z,5.17
2019-04-04T15:58:33.632Z,6.70
2019-04-04T16:01:01.926Z,6.53
2019-04-04T16:03:30.254Z,5.43
2019-04-04T16:05:58.566Z,5.90
2019-04-04T16:08:26.897Z,5.53
2019-04-04T16:10:55.503Z,7.87
2019-04-04T16:13:23.947Z,5.83
2019-04-04T16:15:52.204Z,7.40
2019-04-04T16:18:20.463Z,5.87
2019-04-04T16:20:48.762Z,5.97
2019-04-04T16:23:17.094Z,6.50
2019-04-04T16:25:45.468Z,6.87
2019-04-04T16:28:14.147Z,6.87
2019-04-04T16:30:42.525Z,6.57
2019-04-04T16:33:10.934Z,7.30
2019-04-04T16:35:39.156Z,7.27
2019-04-04T16:38:07.557Z,7.00
2019-04-04T16:40:35.940Z,6.77
2019-04-04T16:43:04.233Z,7.53
2019-04-04T16:45:32.488Z,6.30
2019-04-04T16:48:00.889Z,6.67
2019-04-04T16:50:29.180Z,7.67
2019-04-04T16:52:57.427Z,7.10
2019-04-04T16:55:25.724Z,7.40
2019-04-04T16:57:54.053Z,7.83
2019-04-04T17:00:22.448Z,6.93
2019-04-04T17:02:50.777Z,6.83
2019-04-04T17:05:19.100Z,6.90
2019-04-04T17:07:47.426Z,6.97
2019-04-04T17:10:15.721Z,10.20
2019-04-04T17:12:43.971Z,7.57
2019-04-04T17:15:12.957Z,6.80
2019-04-04T17:17:41.277Z,6.90
2019-04-04T17:20:12.589Z,7.30
2019-04-04T17:22:40.969Z,7.00
2019-04-04T17:25:09.366Z,7.43
2019-04-04T17:27:37.643Z,7.40
2019-04-04T17:30:08.264Z,8.13
2019-04-04T17:32:37.403Z,8.63
2019-04-04T17:35:06.405Z,8.40
2019-04-04T17:37:35.128Z,8.17
2019-04-04T17:40:04.985Z,8.10
2019-04-04T17:42:33.738Z,9.20
2019-04-04T17:45:03.156Z,9.50
2019-04-04T17:47:31.773Z,10.57
2019-04-04T17:50:00.688Z,8.30
2019-04-04T17:52:28.938Z,8.47
2019-04-04T17:54:57.338Z,9.20
2019-04-04T17:57:27.267Z,10.00
2019-04-04T17:59:55.575Z,10.30
2019-04-04T18:02:23.952Z,10.57
2019-04-04T18:04:52.354Z,10.60
2019-04-04T18:07:20.644Z,12.07
2019-04-04T18:09:48.979Z,11.77
2019-04-04T18:12:17.204Z,11.93
2019-04-04T18:14:45.533Z,11.07
2019-04-04T18:17:13.859Z,10.77
2019-04-04T18:19:42.167Z,14.40
2019-04-04T18:22:10.420Z,18.33
2019-04-04T18:24:39.695Z,19.70
2019-04-04T18:27:08.017Z,21.50
2019-04-04T18:29:37.065Z,19.43
2019-04-04T18:32:05.448Z,21.93
2019-04-04T18:34:33.707Z,22.40
2019-04-04T18:37:02.302Z,20.77
2019-04-04T18:39:30.629Z,21.93
2019-04-04T18:41:58.957Z,24.33
2019-04-04T18:44:27.263Z,20.40
2019-04-04T18:46:55.509Z,16.77
2019-04-04T18:49:23.800Z,15.80
2019-04-04T18:51:52.224Z,18.47
2019-04-04T18:54:20.576Z,26.57
2019-04-04T18:56:48.924Z,27.53
2019-04-04T18:59:17.280Z,31.80
2019-04-04T19:01:45.536Z,26.60
2019-04-04T19:04:13.761Z,27.50
2019-04-04T19:06:42.055Z,28.67
2019-04-04T19:09:15.141Z,28.43
2019-04-04T19:11:41.968Z,28.13
2019-04-04T19:14:10.289Z,29.40
2019-04-04T19:16:38.592Z,30.37
2019-04-04T19:19:06.938Z,30.10
2019-04-04T19:21:35.183Z,31.13
2019-04-04T19:24:03.527Z,34.50
2019-04-04T19:26:31.891Z,35.07
2019-04-04T19:29:00.334Z,35.73
2019-04-04T19:31:28.860Z,36.20
2019-04-04T19:33:57.200Z,36.03
2019-04-04T19:36:25.488Z,37.20
2019-04-04T19:38:53.836Z,35.40
2019-04-04T19:41:22.282Z,36.20
2019-04-04T19:43:50.618Z,41.33
2019-04-04T19:46:18.953Z,39.47
2019-04-04T19:48:48.491Z,37.83
2019-04-04T19:51:16.816Z,37.10
2019-04-04T19:53:47.178Z,36.63
2019-04-04T19:56:15.580Z,35.00
2019-04-04T19:58:43.912Z,35.60
2019-04-04T20:01:12.243Z,38.97
2019-04-04T20:03:40.496Z,34.90
2019-04-04T20:06:08.801Z,32.90
2019-04-04T20:08:37.134Z,31.10
2019-04-04T20:11:05.385Z,34.33
2019-04-04T20:13:33.662Z,35.20
2019-04-04T20:16:01.964Z,31.97
2019-04-04T20:18:30.220Z,34.97
2019-04-04T20:20:58.448Z,34.03
2019-04-04T20:23:26.710Z,35.40
2019-04-04T20:25:54.952Z,35.13
2019-04-04T20:28:23.357Z,35.17
2019-04-04T20:30:51.704Z,35.80
2019-04-04T20:33:20.010Z,35.00
2019-04-04T20:35:48.273Z,38.00
2019-04-04T20:38:16.872Z,35.03
2019-04-04T20:40:45.461Z,36.87
2019-04-04T20:43:13.815Z,35.30
2019-04-04T20:45:42.176Z,36.10
2019-04-04T20:48:10.520Z,35.33
2019-04-04T20:50:38.821Z,34.30
2019-04-04T20:53:07.460Z,33.67
2019-04-04T20:55:35.761Z,32.60
2019-04-04T20:58:04.088Z,36.73
2019-04-04T21:00:32.460Z,30.90
2019-04-04T21:03:00.801Z,30.87
2019-04-04T21:05:29.053Z,32.17
2019-04-04T21:07:57.315Z,32.20
2019-04-04T21:10:25.605Z,34.17
2019-04-04T21:12:53.868Z,34.40
2019-04-04T21:15:22.160Z,36.20
2019-04-04T21:17:50.421Z,35.40
2019-04-04T21:20:18.652Z,32.17
2019-04-04T21:22:46.988Z,34.37
2019-04-04T21:25:15.296Z,37.10
2019-04-04T21:27:43.633Z,34.13
2019-04-04T21:30:11.925Z,31.77
2019-04-04T21:32:40.224Z,31.00
2019-04-04T21:35:08.564Z,35.27
2019-04-04T21:37:36.776Z,34.17
2019-04-04T21:40:05.413Z,33.83
2019-04-04T21:42:34.308Z,34.93
2019-04-04T21:45:02.746Z,34.97
2019-04-04T21:47:30.964Z,34.20
2019-04-04T21:49:59.229Z,37.13
2019-04-04T21:52:27.457Z,35.57
2019-04-04T21:54:55.718Z,36.27
2019-04-04T21:57:23.937Z,31.87
2019-04-04T21:59:52.276Z,31.40
2019-04-04T22:02:20.573Z,35.07
2019-04-04T22:04:48.836Z,31.37
2019-04-04T22:07:17.141Z,35.03
2019-04-04T22:09:45.472Z,32.10
2019-04-04T22:12:13.694Z,29.83
2019-04-04T22:14:41.949Z,33.80
2019-04-04T22:17:10.182Z,34.20
2019-04-04T22:19:38.509Z,32.03
2019-04-04T22:22:06.881Z,32.87
2019-04-04T22:24:35.147Z,35.77
2019-04-04T22:27:03.451Z,34.67
2019-04-04T22:29:31.708Z,33.60
2019-04-04T22:31:59.937Z,31.77
2019-04-04T22:34:28.302Z,35.37
2019-04-04T22:36:56.701Z,33.53
2019-04-04T22:39:25.119Z,32.47
2019-04-04T22:41:53.496Z,29.13
2019-04-04T22:44:33.773Z,31.00
2019-04-04T22:46:51.689Z,30.77
2019-04-04T22:49:19.923Z,33.70
2019-04-04T22:51:48.176Z,32.23
2019-04-04T22:54:16.393Z,29.10
2019-04-04T22:56:44.720Z,33.30
2019-04-04T22:59:12.936Z,33.50
2019-04-04T23:01:41.268Z,30.77
2019-04-04T23:04:09.492Z,30.30
2019-04-04T23:06:37.833Z,32.47
2019-04-04T23:09:06.933Z,33.17
2019-04-04T23:11:35.199Z,35.63
2019-04-04T23:14:03.492Z,32.77
2019-04-04T23:16:31.748Z,32.20
2019-04-04T23:18:59.973Z,33.13
2019-04-04T23:21:28.306Z,34.00
2019-04-04T23:23:56.533Z,33.23
2019-04-04T23:26:24.793Z,34.40
2019-04-04T23:28:53.016Z,35.07
2019-04-04T23:31:21.277Z,33.30
2019-04-04T23:33:49.534Z,34.00
2019-04-04T23:36:17.760Z,35.57
2019-04-04T23:38:46.020Z,34.80
2019-04-04T23:41:14.248Z,32.67
2019-04-04T23:43:42.580Z,34.47
2019-04-04T23:46:10.837Z,37.03
2019-04-04T23:48:39.161Z,35.77
2019-04-04T23:51:07.387Z,33.47
2019-04-04T23:53:35.717Z,36.30
2019-04-04T23:56:04.113Z,37.03
2019-04-04T23:58:32.445Z,33.23
